createdAt,value
2023-05-06T00:02:13.175Z,4.43
2023-05-06T00:04:41.201Z,3.90
2023-05-06T00:07:09.125Z,4.73
2023-05-06T00:09:38.469Z,4.03
2023-05-06T00:12:06.727Z,4.33
2023-05-06T00:14:34.717Z,4.07
2023-05-06T00:17:02.637Z,4.53
2023-05-06T00:19:30.629Z,4.47
2023-05-06T00:21:58.562Z,4.90
2023-05-06T00:24:26.570Z,4.53
2023-05-06T00:26:55.827Z,5.33
2023-05-06T00:29:23.764Z,4.83
2023-05-06T00:31:51.788Z,4.63
2023-05-06T00:34:19.819Z,5.30
2023-05-06T00:36:47.819Z,4.43
2023-05-06T00:39:16.243Z,4.97
2023-05-06T00:41:44.217Z,4.27
2023-05-06T00:44:13.728Z,5.40
2023-05-06T00:46:43.297Z,4.33
2023-05-06T00:49:12.588Z,4.90
2023-05-06T00:51:40.657Z,4.77
2023-05-06T00:54:09.222Z,5.30
2023-05-06T00:56:37.208Z,4.83
2023-05-06T00:59:05.226Z,5.33
2023-05-06T01:01:35.653Z,4.87
2023-05-06T01:04:03.735Z,4.87
2023-05-06T01:06:40.393Z,4.97
2023-05-06T01:09:15.645Z,5.20
2023-05-06T01:11:48.873Z,5.10
2023-05-06T01:14:26.746Z,5.33
2023-05-06T01:16:59.472Z,5.07
2023-05-06T01:19:38.833Z,4.90
2023-05-06T01:22:07.836Z,5.43
2023-05-06T01:24:38.399Z,5.30
2023-05-06T01:27:06.475Z,5.40
2023-05-06T01:29:36.787Z,5.33
2023-05-06T01:32:26.237Z,5.67
2023-05-06T01:35:01.117Z,5.83
2023-05-06T01:37:36.132Z,5.13
2023-05-06T01:40:07.661Z,5.67
2023-05-06T01:42:36.858Z,5.70
2023-05-06T01:45:08.173Z,5.53
2023-05-06T01:47:38.548Z,5.63
2023-05-06T01:50:07.715Z,5.33
2023-05-06T01:52:35.777Z,5.33
2023-05-06T01:55:05.454Z,5.27
2023-05-06T01:57:33.617Z,5.50
2023-05-06T02:00:01.532Z,5.97
2023-05-06T02:02:29.632Z,5.50
2023-05-06T02:04:57.582Z,5.50
2023-05-06T02:07:25.792Z,5.53
2023-05-06T02:09:53.658Z,5.57
2023-05-06T02:12:23.129Z,5.50
2023-05-06T02:14:51.029Z,5.37
2023-05-06T02:17:19.049Z,5.43
2023-05-06T02:19:46.954Z,5.50
2023-05-06T02:22:14.954Z,5.50
2023-05-06T02:24:42.824Z,6.10
2023-05-06T02:27:11.052Z,5.70
2023-05-06T02:29:40.304Z,6.10
2023-05-06T02:32:08.276Z,4.77
2023-05-06T02:34:36.276Z,5.73
2023-05-06T02:37:04.558Z,6.17
2023-05-06T02:39:32.468Z,6.10
2023-05-06T02:42:02.409Z,4.93
2023-05-06T02:44:30.623Z,6.27
2023-05-06T02:47:01.231Z,5.73
2023-05-06T02:49:29.200Z,5.33
2023-05-06T02:51:57.171Z,6.00
2023-05-06T02:54:27.138Z,5.57
2023-05-06T02:56:55.215Z,5.37
2023-05-06T02:59:23.177Z,5.70
2023-05-06T03:01:51.197Z,6.43
2023-05-06T03:04:21.233Z,6.00
2023-05-06T03:06:51.632Z,6.13
2023-05-06T03:09:19.618Z,6.03
2023-05-06T03:11:48.258Z,6.70
2023-05-06T03:14:16.825Z,5.63
2023-05-06T03:16:45.011Z,5.77
2023-05-06T03:19:13.558Z,6.57
2023-05-06T03:21:45.505Z,6.47
2023-05-06T03:24:13.555Z,6.50
2023-05-06T03:26:41.490Z,6.13
2023-05-06T03:29:11.311Z,5.83
2023-05-06T03:31:39.695Z,6.37
2023-05-06T03:34:07.840Z,6.23
2023-05-06T03:36:36.364Z,6.37
2023-05-06T03:39:05.758Z,6.00
2023-05-06T03:41:36.038Z,6.33
2023-05-06T03:44:04.423Z,6.80
2023-05-06T03:46:32.816Z,6.43
2023-05-06T03:49:02.717Z,6.80
2023-05-06T03:51:30.945Z,6.17
2023-05-06T03:53:59.114Z,6.77
2023-05-06T03:56:28.629Z,7.17
2023-05-06T03:58:58.548Z,6.80
2023-05-06T04:01:28.926Z,6.20
2023-05-06T04:03:57.016Z,6.40
2023-05-06T04:06:26.965Z,6.47
2023-05-06T04:08:54.991Z,6.73
2023-05-06T04:11:23.725Z,7.30
2023-05-06T04:13:53.245Z,6.50
2023-05-06T04:16:23.618Z,7.10
2023-05-06T04:18:52.747Z,6.23
2023-05-06T04:21:20.709Z,6.40
2023-05-06T04:23:55.773Z,6.70
2023-05-06T04:26:32.977Z,6.90
2023-05-06T04:29:02.922Z,6.93
2023-05-06T04:31:34.401Z,7.27
2023-05-06T04:34:05.499Z,6.80
2023-05-06T04:36:34.288Z,7.30
2023-05-06T04:39:24.406Z,7.07
2023-05-06T04:41:52.786Z,6.93
2023-05-06T04:44:29.429Z,6.60
2023-05-06T04:46:57.739Z,6.30
2023-05-06T04:49:25.838Z,6.87
2023-05-06T04:51:54.423Z,7.40
2023-05-06T04:54:22.501Z,7.30
2023-05-06T04:56:50.620Z,7.00
2023-05-06T04:59:20.785Z,7.30
2023-05-06T05:01:50.399Z,7.40
2023-05-06T05:04:18.602Z,7.17
2023-05-06T05:06:46.765Z,6.97
2023-05-06T05:09:15.648Z,8.03
2023-05-06T05:11:45.905Z,7.70
2023-05-06T05:14:14.482Z,7.47
2023-05-06T05:16:42.728Z,8.60
2023-05-06T05:19:13.026Z,7.43
2023-05-06T05:21:41.316Z,7.60
2023-05-06T05:24:11.559Z,7.47
2023-05-06T05:26:39.623Z,6.87
2023-05-06T05:29:08.049Z,7.70
2023-05-06T05:31:37.626Z,7.53
2023-05-06T05:34:06.004Z,8.13
2023-05-06T05:36:35.296Z,7.13
2023-05-06T05:39:07.239Z,7.80
2023-05-06T05:41:38.971Z,8.30
2023-05-06T05:44:07.244Z,7.60
2023-05-06T05:46:35.930Z,7.57
2023-05-06T05:49:05.607Z,7.90
2023-05-06T05:51:35.719Z,7.97
2023-05-06T05:54:06.322Z,10.67
2023-05-06T05:56:34.919Z,10.63
2023-05-06T05:59:02.955Z,7.97
2023-05-06T06:01:31.097Z,7.90
2023-05-06T06:04:00.093Z,8.70
2023-05-06T06:06:28.333Z,8.67
2023-05-06T06:08:58.166Z,7.70
2023-05-06T06:11:28.425Z,8.53
2023-05-06T06:13:56.597Z,8.70
2023-05-06T06:16:25.038Z,8.00
2023-05-06T06:18:54.160Z,8.23
2023-05-06T06:21:22.088Z,8.53
2023-05-06T06:23:50.912Z,8.80
2023-05-06T06:26:21.252Z,8.30
2023-05-06T06:28:50.167Z,7.97
2023-05-06T06:31:18.109Z,8.03
2023-05-06T06:33:46.117Z,8.70
2023-05-06T06:36:14.050Z,8.80
2023-05-06T06:38:43.480Z,8.37
2023-05-06T06:41:11.604Z,8.67
2023-05-06T06:43:40.871Z,7.93
2023-05-06T06:46:17.904Z,8.83
2023-05-06T06:48:45.918Z,8.40
2023-05-06T06:51:13.808Z,7.97
2023-05-06T06:53:41.810Z,8.03
2023-05-06T06:56:11.290Z,7.37
2023-05-06T06:58:40.642Z,7.33
2023-05-06T07:01:08.801Z,11.67
2023-05-06T07:03:36.889Z,9.50
2023-05-06T07:06:05.249Z,7.90
2023-05-06T07:08:33.160Z,7.10
2023-05-06T07:11:01.147Z,8.47
2023-05-06T07:13:29.036Z,8.70
2023-05-06T07:15:58.685Z,6.03
2023-05-06T07:18:26.670Z,7.17
2023-05-06T07:20:54.560Z,7.90
2023-05-06T07:23:22.552Z,7.27
2023-05-06T07:25:50.456Z,7.90
2023-05-06T07:28:18.543Z,6.70
2023-05-06T07:30:46.847Z,7.90
2023-05-06T07:33:16.250Z,8.00
2023-05-06T07:35:44.213Z,7.07
2023-05-06T07:38:12.110Z,6.53
2023-05-06T07:40:40.081Z,6.70
2023-05-06T07:43:08.999Z,7.53
2023-05-06T07:45:37.009Z,7.43
2023-05-06T07:48:05.974Z,7.43
2023-05-06T07:50:35.575Z,6.80
2023-05-06T07:53:04.012Z,7.20
2023-05-06T07:55:33.926Z,6.73
2023-05-06T07:58:03.087Z,7.07
2023-05-06T08:00:31.056Z,7.30
2023-05-06T08:02:59.100Z,6.60
2023-05-06T08:05:27.055Z,6.23
2023-05-06T08:07:56.665Z,7.23
2023-05-06T08:10:24.858Z,6.50
2023-05-06T08:12:52.784Z,7.07
2023-05-06T08:15:20.947Z,6.70
2023-05-06T08:17:48.862Z,7.30
2023-05-06T08:20:16.820Z,6.37
2023-05-06T08:22:44.703Z,7.30
2023-05-06T08:25:14.046Z,7.10
2023-05-06T08:27:41.914Z,6.63
2023-05-06T08:30:11.158Z,7.17
2023-05-06T08:32:40.064Z,6.77
2023-05-06T08:35:09.260Z,6.87
2023-05-06T08:37:38.978Z,6.87
2023-05-06T08:40:14.989Z,6.53
2023-05-06T08:42:46.987Z,7.33
2023-05-06T08:45:15.094Z,7.23
2023-05-06T08:47:43.186Z,7.57
2023-05-06T08:50:12.263Z,7.17
2023-05-06T08:52:40.785Z,7.27
2023-05-06T08:55:10.479Z,7.17
2023-05-06T08:57:39.243Z,7.33
2023-05-06T09:00:10.923Z,7.27
2023-05-06T09:02:41.275Z,6.90
2023-05-06T09:05:11.933Z,8.00
2023-05-06T09:07:40.921Z,7.63
2023-05-06T09:10:13.195Z,7.63
2023-05-06T09:12:41.463Z,7.63
2023-05-06T09:15:12.246Z,8.18
2023-05-06T09:17:40.522Z,7.33
2023-05-06T09:20:13.119Z,7.60
2023-05-06T09:22:41.193Z,7.20
2023-05-06T09:25:11.869Z,7.73
2023-05-06T09:27:40.642Z,7.37
2023-05-06T09:30:12.639Z,7.67
2023-05-06T09:32:41.721Z,7.80
2023-05-06T09:35:11.622Z,8.70
2023-05-06T09:37:40.243Z,8.27
2023-05-06T09:40:10.925Z,8.43
2023-05-06T09:42:39.352Z,7.97
2023-05-06T09:45:11.860Z,8.13
2023-05-06T09:47:40.384Z,8.07
2023-05-06T09:50:11.204Z,7.93
2023-05-06T09:52:39.130Z,8.80
2023-05-06T09:55:08.389Z,8.37
2023-05-06T09:57:38.148Z,8.50
2023-05-06T10:00:08.836Z,9.30
2023-05-06T10:02:45.601Z,8.03
2023-05-06T10:05:14.913Z,8.90
2023-05-06T10:07:43.061Z,9.10
2023-05-06T10:10:13.377Z,9.07
2023-05-06T10:12:41.485Z,8.40
2023-05-06T10:15:10.928Z,9.00
2023-05-06T10:17:40.845Z,9.10
2023-05-06T10:20:14.511Z,9.03
2023-05-06T10:22:50.203Z,9.57
2023-05-06T10:25:30.318Z,9.40
2023-05-06T10:27:58.848Z,9.30
2023-05-06T10:30:29.512Z,8.83
2023-05-06T10:33:00.607Z,9.13
2023-05-06T10:35:41.918Z,8.10
2023-05-06T10:38:15.546Z,9.80
2023-05-06T10:40:44.436Z,8.87
2023-05-06T10:43:25.712Z,9.13
2023-05-06T10:46:01.603Z,9.80
2023-05-06T10:48:29.947Z,9.70
2023-05-06T10:51:28.274Z,9.77
2023-05-06T10:53:58.051Z,9.13
2023-05-06T10:56:26.062Z,9.20
2023-05-06T10:58:56.042Z,9.77
2023-05-06T11:01:27.268Z,9.33
2023-05-06T11:03:55.835Z,9.70
2023-05-06T11:06:39.321Z,9.43
2023-05-06T11:09:07.859Z,9.23
2023-05-06T11:11:53.124Z,7.17
2023-05-06T11:14:30.066Z,8.97
2023-05-06T11:16:59.622Z,8.87
2023-05-06T11:19:29.961Z,8.70
2023-05-06T11:22:00.644Z,8.43
2023-05-06T11:24:29.955Z,8.23
2023-05-06T11:26:59.033Z,9.73
2023-05-06T11:29:27.741Z,9.37
2023-05-06T11:31:55.678Z,10.73
2023-05-06T11:34:25.930Z,10.33
2023-05-06T11:36:58.364Z,9.17
2023-05-06T11:39:30.466Z,9.43
2023-05-06T11:42:02.813Z,10.50
2023-05-06T11:44:33.388Z,9.87
2023-05-06T11:47:03.023Z,14.47
2023-05-06T11:49:31.189Z,11.97
2023-05-06T11:51:59.378Z,12.70
2023-05-06T11:54:29.019Z,10.70
2023-05-06T11:56:57.922Z,10.50
2023-05-06T11:59:31.092Z,10.37
2023-05-06T12:02:00.422Z,10.10
2023-05-06T12:04:28.503Z,9.87
2023-05-06T12:06:57.954Z,11.93
2023-05-06T12:09:26.329Z,11.43
2023-05-06T12:11:56.182Z,11.87
2023-05-06T12:14:24.538Z,11.80
2023-05-06T12:16:54.770Z,10.93
2023-05-06T12:19:24.328Z,10.87
2023-05-06T12:21:52.491Z,10.00
2023-05-06T12:24:29.826Z,9.50
2023-05-06T12:26:59.314Z,10.10
2023-05-06T12:29:27.353Z,10.20
2023-05-06T12:32:09.289Z,10.20
2023-05-06T12:34:38.111Z,9.53
2023-05-06T12:37:06.296Z,9.97
2023-05-06T12:39:38.592Z,9.60
2023-05-06T12:42:08.658Z,9.87
2023-05-06T12:44:38.427Z,8.90
2023-05-06T12:47:08.397Z,7.97
2023-05-06T12:49:50.937Z,8.37
2023-05-06T12:52:20.272Z,9.60
2023-05-06T12:54:48.664Z,9.37
2023-05-06T12:57:18.136Z,8.80
2023-05-06T12:59:46.579Z,8.00
2023-05-06T13:02:14.794Z,8.07
2023-05-06T13:04:43.030Z,8.37
2023-05-06T13:07:11.027Z,8.37
2023-05-06T13:09:38.990Z,7.60
2023-05-06T13:12:07.725Z,8.73
2023-05-06T13:14:39.847Z,7.97
2023-05-06T13:17:08.589Z,8.80
2023-05-06T13:19:36.646Z,9.03
2023-05-06T13:22:04.589Z,10.10
2023-05-06T13:24:33.224Z,9.37
2023-05-06T13:27:03.543Z,9.77
2023-05-06T13:29:31.844Z,10.60
2023-05-06T13:32:01.614Z,10.53
2023-05-06T13:34:29.550Z,11.63
2023-05-06T13:36:57.478Z,10.13
2023-05-06T13:39:26.005Z,10.30
2023-05-06T13:41:54.224Z,10.43
2023-05-06T13:44:22.722Z,10.83
2023-05-06T13:46:51.110Z,11.50
2023-05-06T13:49:20.955Z,11.40
2023-05-06T13:51:48.983Z,11.90
2023-05-06T13:54:16.870Z,11.13
2023-05-06T13:56:44.894Z,11.80
2023-05-06T13:59:13.942Z,12.27
2023-05-06T14:01:42.717Z,11.47
2023-05-06T14:04:10.789Z,12.13
2023-05-06T14:06:40.529Z,12.07
2023-05-06T14:09:09.006Z,12.37
2023-05-06T14:11:36.896Z,12.30
2023-05-06T14:14:06.404Z,13.23
2023-05-06T14:16:34.426Z,14.03
2023-05-06T14:19:02.459Z,14.20
2023-05-06T14:21:30.540Z,13.87
2023-05-06T14:23:59.881Z,13.73
2023-05-06T14:26:28.114Z,12.83
2023-05-06T14:28:56.131Z,13.60
2023-05-06T14:31:24.390Z,13.63
2023-05-06T14:33:52.464Z,13.77
2023-05-06T14:36:20.663Z,13.43
2023-05-06T14:38:48.847Z,13.07
2023-05-06T14:41:18.044Z,13.93
2023-05-06T14:43:46.459Z,13.83
2023-05-06T14:46:15.904Z,14.20
2023-05-06T14:48:45.322Z,13.77
2023-05-06T14:51:13.327Z,14.40
2023-05-06T14:53:41.245Z,14.40
2023-05-06T14:56:10.632Z,13.90
2023-05-06T14:58:40.223Z,13.10
2023-05-06T15:01:08.422Z,14.23
2023-05-06T15:03:37.045Z,12.93
2023-05-06T15:06:06.061Z,14.40
2023-05-06T15:08:34.351Z,13.90
2023-05-06T15:11:04.295Z,13.60
2023-05-06T15:13:32.520Z,14.03
2023-05-06T15:16:01.895Z,13.73
2023-05-06T15:18:29.835Z,14.50
2023-05-06T15:21:01.293Z,15.37
2023-05-06T15:23:29.602Z,14.10
2023-05-06T15:25:58.518Z,14.43
2023-05-06T15:28:26.698Z,15.27
2023-05-06T15:30:54.769Z,14.93
2023-05-06T15:33:24.162Z,14.27
2023-05-06T15:35:52.133Z,14.23
2023-05-06T15:38:20.072Z,14.87
2023-05-06T15:40:52.096Z,13.83
2023-05-06T15:43:23.674Z,15.23
2023-05-06T15:45:52.552Z,14.63
2023-05-06T15:48:20.453Z,14.43
2023-05-06T15:50:49.833Z,14.67
2023-05-06T15:53:18.017Z,14.47
2023-05-06T15:55:52.970Z,14.93
2023-05-06T15:58:25.303Z,15.30
2023-05-06T16:00:53.282Z,14.47
2023-05-06T16:03:21.374Z,13.57
2023-05-06T16:05:50.816Z,14.13
2023-05-06T16:08:18.989Z,14.57
2023-05-06T16:10:46.850Z,14.20
2023-05-06T16:13:14.899Z,14.40
2023-05-06T16:15:43.065Z,14.27
2023-05-06T16:18:11.312Z,14.67
2023-05-06T16:20:39.418Z,14.17
2023-05-06T16:23:08.921Z,15.30
2023-05-06T16:25:38.913Z,13.93
2023-05-06T16:28:08.747Z,15.37
2023-05-06T16:30:36.970Z,14.00
2023-05-06T16:33:05.226Z,14.20
2023-05-06T16:35:33.786Z,14.60
2023-05-06T16:38:01.683Z,15.73
2023-05-06T16:40:31.253Z,14.17
2023-05-06T16:42:59.192Z,13.67
2023-05-06T16:45:27.155Z,14.50
2023-05-06T16:47:55.177Z,14.13
2023-05-06T16:50:23.209Z,14.03
2023-05-06T16:52:51.239Z,13.63
2023-05-06T16:55:21.755Z,13.47
2023-05-06T16:57:51.167Z,13.67
2023-05-06T17:00:20.948Z,13.80
2023-05-06T17:02:49.016Z,13.60
2023-05-06T17:05:17.247Z,13.50
2023-05-06T17:07:45.678Z,13.37
2023-05-06T17:10:13.756Z,13.33
2023-05-06T17:12:42.602Z,13.00
2023-05-06T17:15:12.968Z,14.30
2023-05-06T17:17:41.101Z,13.27
2023-05-06T17:20:10.210Z,13.87
2023-05-06T17:22:38.396Z,14.57
2023-05-06T17:25:07.193Z,12.70
2023-05-06T17:27:35.405Z,13.17
2023-05-06T17:30:03.369Z,12.93
2023-05-06T17:32:33.112Z,12.53
2023-05-06T17:35:01.164Z,13.17
2023-05-06T17:37:29.151Z,13.30
2023-05-06T17:39:57.124Z,13.27
2023-05-06T17:42:26.005Z,12.90
2023-05-06T17:44:53.982Z,13.53
2023-05-06T17:47:22.719Z,13.20
2023-05-06T17:49:54.305Z,13.43
2023-05-06T17:52:22.412Z,13.27
2023-05-06T17:55:01.496Z,13.60
2023-05-06T17:57:38.483Z,14.33
2023-05-06T18:00:08.969Z,14.63
2023-05-06T18:02:43.438Z,14.17
2023-05-06T18:05:13.283Z,14.90
2023-05-06T18:07:41.687Z,14.00
2023-05-06T18:10:10.734Z,13.97
2023-05-06T18:12:38.824Z,15.03
2023-05-06T18:15:08.305Z,13.70
2023-05-06T18:17:36.648Z,14.00
2023-05-06T18:20:06.417Z,13.73
2023-05-06T18:22:35.806Z,14.70
2023-05-06T18:25:04.305Z,14.13
2023-05-06T18:27:32.489Z,13.87
2023-05-06T18:30:00.510Z,14.27
2023-05-06T18:32:28.487Z,14.63
2023-05-06T18:34:56.388Z,14.57
2023-05-06T18:37:24.486Z,14.07
2023-05-06T18:39:53.728Z,14.67
2023-05-06T18:42:22.398Z,14.87
2023-05-06T18:44:51.217Z,13.60
2023-05-06T18:47:19.488Z,14.10
2023-05-06T18:49:47.432Z,14.73
2023-05-06T18:52:17.565Z,14.60
2023-05-06T18:54:46.172Z,14.53
2023-05-06T18:57:15.586Z,14.50
2023-05-06T18:59:43.626Z,14.00
2023-05-06T19:02:11.592Z,14.77
2023-05-06T19:04:39.629Z,14.13
2023-05-06T19:07:07.571Z,13.60
2023-05-06T19:09:37.021Z,14.87
2023-05-06T19:12:05.307Z,13.53
2023-05-06T19:14:35.356Z,14.10
2023-05-06T19:17:05.373Z,14.20
2023-05-06T19:19:33.466Z,13.77
2023-05-06T19:22:02.170Z,14.17
2023-05-06T19:24:31.383Z,14.07
2023-05-06T19:26:59.512Z,14.33
2023-05-06T19:29:27.402Z,14.23
2023-05-06T19:31:56.669Z,13.90
2023-05-06T19:34:24.577Z,14.47
2023-05-06T19:36:52.634Z,14.90
2023-05-06T19:39:21.272Z,14.27
2023-05-06T19:41:49.355Z,14.43
2023-05-06T19:44:17.274Z,14.83
2023-05-06T19:46:45.331Z,14.67
2023-05-06T19:49:14.687Z,14.93
2023-05-06T19:51:42.953Z,14.83
2023-05-06T19:54:10.911Z,14.43
2023-05-06T19:56:39.009Z,14.20
2023-05-06T19:59:06.997Z,14.67
2023-05-06T20:01:35.076Z,15.10
2023-05-06T20:04:03.849Z,15.17
2023-05-06T20:06:33.233Z,14.40
2023-05-06T20:09:01.125Z,14.80
2023-05-06T20:11:29.122Z,14.40
2023-05-06T20:13:57.025Z,14.83
2023-05-06T20:16:25.092Z,15.93
2023-05-06T20:18:53.926Z,14.30
2023-05-06T20:21:22.005Z,14.50
2023-05-06T20:23:51.399Z,15.40
2023-05-06T20:26:21.892Z,15.20
2023-05-06T20:28:53.066Z,15.13
2023-05-06T20:31:21.205Z,14.93
2023-05-06T20:33:49.130Z,15.73
2023-05-06T20:36:17.068Z,15.53
2023-05-06T20:38:44.993Z,14.90
2023-05-06T20:41:14.405Z,15.20
2023-05-06T20:43:42.311Z,15.60
2023-05-06T20:46:10.302Z,15.33
2023-05-06T20:48:38.283Z,15.27
2023-05-06T20:51:06.662Z,15.37
2023-05-06T20:53:34.657Z,14.50
2023-05-06T20:56:02.592Z,14.90
2023-05-06T20:58:31.913Z,14.40
2023-05-06T21:00:59.961Z,15.03
2023-05-06T21:03:28.052Z,14.67
2023-05-06T21:05:56.073Z,15.77
2023-05-06T21:08:24.005Z,15.43
2023-05-06T21:10:52.470Z,15.13
2023-05-06T21:13:20.649Z,15.67
2023-05-06T21:15:50.020Z,15.73
2023-05-06T21:18:18.380Z,14.77
2023-05-06T21:20:46.707Z,15.13
2023-05-06T21:23:14.793Z,15.07
2023-05-06T21:25:43.094Z,14.93
2023-05-06T21:28:11.130Z,14.57
2023-05-06T21:30:39.144Z,14.20
2023-05-06T21:33:11.075Z,14.33
2023-05-06T21:35:39.527Z,14.27
2023-05-06T21:38:07.611Z,14.50
2023-05-06T21:40:35.574Z,14.27
2023-05-06T21:43:04.165Z,13.70
2023-05-06T21:45:32.157Z,13.97
2023-05-06T21:48:00.195Z,13.57
2023-05-06T21:50:29.669Z,13.97
2023-05-06T21:52:57.899Z,13.53
2023-05-06T21:55:27.722Z,13.47
2023-05-06T21:57:55.686Z,13.60
2023-05-06T22:00:23.607Z,13.70
2023-05-06T22:02:53.059Z,13.73
2023-05-06T22:05:21.345Z,13.43
2023-05-06T22:07:50.974Z,13.63
2023-05-06T22:10:18.972Z,12.73
2023-05-06T22:12:46.995Z,12.23
2023-05-06T22:15:15.217Z,12.17
2023-05-06T22:17:43.175Z,12.47
2023-05-06T22:20:11.945Z,12.90
2023-05-06T22:22:39.856Z,12.80
2023-05-06T22:25:10.593Z,12.80
2023-05-06T22:27:38.782Z,11.73
2023-05-06T22:30:08.069Z,11.93
2023-05-06T22:32:36.202Z,11.43
2023-05-06T22:35:04.244Z,11.70
2023-05-06T22:37:32.275Z,11.70
2023-05-06T22:40:00.427Z,11.03
2023-05-06T22:42:29.832Z,10.80
2023-05-06T22:44:57.781Z,11.40
2023-05-06T22:47:25.724Z,10.80
2023-05-06T22:49:53.786Z,10.57
2023-05-06T22:52:21.709Z,10.87
2023-05-06T22:54:49.682Z,10.63
2023-05-06T22:57:18.985Z,10.20
2023-05-06T22:59:48.403Z,10.67
2023-05-06T23:02:16.335Z,10.57
2023-05-06T23:04:44.285Z,10.30
2023-05-06T23:07:13.612Z,10.97
2023-05-06T23:09:42.408Z,11.13
2023-05-06T23:12:10.327Z,11.33
2023-05-06T23:14:38.395Z,11.10
2023-05-06T23:17:07.915Z,11.63
2023-05-06T23:19:36.316Z,11.83
2023-05-06T23:22:04.457Z,11.87
2023-05-06T23:24:32.435Z,12.20
2023-05-06T23:27:01.026Z,12.60
2023-05-06T23:29:29.034Z,13.40
2023-05-06T23:31:56.991Z,13.03
2023-05-06T23:34:27.359Z,12.20
2023-05-06T23:36:56.514Z,12.73
2023-05-06T23:39:24.451Z,12.90
2023-05-06T23:41:52.516Z,12.50
2023-05-06T23:44:20.532Z,11.73
2023-05-06T23:46:48.568Z,12.53
2023-05-06T23:49:16.443Z,12.30
2023-05-06T23:51:45.824Z,12.00
2023-05-06T23:54:13.735Z,11.80
2023-05-06T23:56:41.638Z,11.53
2023-05-06T23:59:09.661Z,11.03
